createdAt,value
2017-06-26T00:00:25.476Z,19.70
2017-06-26T00:02:51.880Z,19.60
2017-06-26T00:05:18.285Z,19.70
2017-06-26T00:07:44.808Z,19.60
2017-06-26T00:10:11.949Z,19.60
2017-06-26T00:12:39.095Z,19.60
2017-06-26T00:15:05.520Z,19.50
2017-06-26T00:17:32.045Z,19.50
2017-06-26T00:19:58.429Z,19.40
2017-06-26T00:22:24.864Z,19.40
2017-06-26T00:24:51.270Z,19.50
2017-06-26T00:27:17.801Z,19.50
2017-06-26T00:29:44.947Z,19.50
2017-06-26T00:32:11.352Z,19.40
2017-06-26T00:34:37.768Z,19.50
2017-06-26T00:37:04.308Z,19.40
2017-06-26T00:39:30.723Z,19.40
2017-06-26T00:41:57.120Z,19.30
2017-06-26T00:44:24.244Z,19.30
2017-06-26T00:46:50.757Z,19.20
2017-06-26T00:49:17.144Z,19.20
2017-06-26T00:51:44.300Z,19.20
2017-06-26T00:54:10.732Z,19.10
2017-06-26T00:56:37.128Z,19.10
2017-06-26T00:59:03.527Z,19.10
2017-06-26T01:01:29.965Z,19.10
2017-06-26T01:03:56.359Z,19.10
2017-06-26T01:06:23.620Z,19.00
2017-06-26T01:08:50.081Z,19.00
2017-06-26T01:11:16.509Z,19.00
2017-06-26T01:13:43.035Z,19.00
2017-06-26T01:16:09.431Z,19.00
2017-06-26T01:18:36.660Z,19.00
2017-06-26T01:21:03.089Z,19.00
2017-06-26T01:23:29.476Z,19.00
2017-06-26T01:25:55.919Z,19.00
2017-06-26T01:28:22.376Z,19.00
2017-06-26T01:30:48.773Z,19.00
2017-06-26T01:33:15.309Z,18.90
2017-06-26T01:35:41.708Z,18.80
2017-06-26T01:38:08.226Z,18.80
2017-06-26T01:40:34.674Z,18.80
2017-06-26T01:43:01.841Z,18.80
2017-06-26T01:45:29.033Z,18.80
2017-06-26T01:47:55.475Z,18.70
2017-06-26T01:50:22.004Z,18.70
2017-06-26T01:52:48.436Z,18.60
2017-06-26T01:55:14.884Z,18.60
2017-06-26T01:57:41.459Z,18.60
2017-06-26T02:00:08.589Z,18.60
2017-06-26T02:02:34.982Z,18.60
2017-06-26T02:05:01.419Z,18.60
2017-06-26T02:07:27.860Z,18.60
2017-06-26T02:09:54.252Z,18.60
2017-06-26T02:12:20.681Z,18.60
2017-06-26T02:14:47.808Z,18.60
2017-06-26T02:17:14.307Z,18.50
2017-06-26T02:19:40.760Z,18.50
2017-06-26T02:22:07.163Z,18.50
2017-06-26T02:24:33.606Z,18.50
2017-06-26T02:27:00.087Z,18.50
2017-06-26T02:29:26.469Z,18.40
2017-06-26T02:31:52.857Z,18.50
2017-06-26T02:34:20.113Z,18.40
2017-06-26T02:36:47.295Z,18.50
2017-06-26T02:39:13.689Z,18.40
2017-06-26T02:41:40.128Z,18.50
2017-06-26T02:44:07.264Z,18.40
2017-06-26T02:46:34.401Z,18.40
2017-06-26T02:49:00.943Z,18.40
2017-06-26T02:51:27.327Z,18.40
2017-06-26T02:53:53.759Z,18.40
2017-06-26T02:56:20.189Z,18.40
2017-06-26T02:58:46.632Z,18.30
2017-06-26T03:01:13.044Z,18.30
2017-06-26T03:03:39.431Z,18.30
2017-06-26T03:06:05.872Z,18.20
2017-06-26T03:08:33.079Z,18.00
2017-06-26T03:10:59.468Z,18.00
2017-06-26T03:13:26.624Z,18.10
2017-06-26T03:15:53.752Z,18.00
2017-06-26T03:18:20.307Z,18.00
2017-06-26T03:20:46.712Z,18.00
2017-06-26T03:23:13.095Z,17.90
2017-06-26T03:25:39.524Z,17.90
2017-06-26T03:28:05.978Z,17.90
2017-06-26T03:30:32.373Z,17.90
2017-06-26T03:32:59.552Z,17.90
2017-06-26T03:35:25.944Z,17.80
2017-06-26T03:37:53.169Z,17.80
2017-06-26T03:40:19.605Z,17.70
2017-06-26T03:42:45.992Z,17.80
2017-06-26T03:45:12.400Z,17.80
2017-06-26T03:47:39.625Z,17.80
2017-06-26T03:50:06.051Z,17.70
2017-06-26T03:52:32.520Z,17.80
2017-06-26T03:54:59.643Z,17.60
2017-06-26T03:57:26.036Z,17.70
2017-06-26T03:59:52.496Z,17.70
2017-06-26T04:02:18.897Z,17.70
2017-06-26T04:04:45.297Z,17.70
2017-06-26T04:07:12.529Z,17.70
2017-06-26T04:09:38.921Z,17.70
2017-06-26T04:12:05.308Z,17.70
2017-06-26T04:14:32.488Z,17.80
2017-06-26T04:16:58.952Z,17.70
2017-06-26T04:19:25.340Z,17.80
2017-06-26T04:21:51.769Z,17.80
2017-06-26T04:24:18.151Z,17.80
2017-06-26T04:26:44.597Z,17.80
2017-06-26T04:29:10.986Z,17.80
2017-06-26T04:31:37.396Z,17.80
2017-06-26T04:34:04.569Z,17.90
2017-06-26T04:36:30.983Z,17.90
2017-06-26T04:38:57.468Z,17.90
2017-06-26T04:41:24.037Z,18.00
2017-06-26T04:43:50.475Z,18.00
2017-06-26T04:46:17.605Z,17.90
2017-06-26T04:48:44.304Z,17.90
2017-06-26T04:51:10.696Z,17.70
2017-06-26T04:53:37.829Z,17.90
2017-06-26T04:56:04.338Z,17.90
2017-06-26T04:58:30.861Z,18.00
2017-06-26T05:00:57.302Z,18.10
2017-06-26T05:03:23.695Z,18.10
2017-06-26T05:05:50.117Z,18.10
2017-06-26T05:08:17.444Z,18.10
2017-06-26T05:10:43.838Z,18.10
2017-06-26T05:13:10.260Z,18.10
2017-06-26T05:15:36.769Z,18.10
2017-06-26T05:18:03.259Z,18.20
2017-06-26T05:20:29.804Z,18.20
2017-06-26T05:22:56.344Z,18.20
2017-06-26T05:25:29.661Z,18.20
2017-06-26T05:27:56.912Z,18.20
2017-06-26T05:30:24.064Z,18.30
2017-06-26T05:32:51.300Z,18.40
2017-06-26T05:35:17.741Z,18.40
2017-06-26T05:37:44.248Z,18.50
2017-06-26T05:40:10.703Z,18.60
2017-06-26T05:42:37.120Z,18.60
2017-06-26T05:45:03.512Z,18.60
2017-06-26T05:47:30.040Z,18.60
2017-06-26T05:49:56.435Z,18.60
2017-06-26T05:52:22.832Z,18.70
2017-06-26T05:54:49.292Z,18.70
2017-06-26T05:57:16.735Z,18.80
2017-06-26T05:59:43.191Z,18.80
2017-06-26T06:02:09.589Z,18.90
2017-06-26T06:04:36.025Z,18.90
2017-06-26T06:07:02.596Z,19.00
2017-06-26T06:09:29.877Z,19.00
2017-06-26T06:11:56.329Z,19.00
2017-06-26T06:14:22.704Z,19.10
2017-06-26T06:16:49.087Z,19.20
2017-06-26T06:19:15.540Z,19.20
2017-06-26T06:21:41.952Z,19.20
2017-06-26T06:24:08.356Z,19.30
2017-06-26T06:26:34.776Z,19.40
2017-06-26T06:29:01.168Z,19.50
2017-06-26T06:31:27.561Z,19.50
2017-06-26T06:33:54.725Z,19.60
2017-06-26T06:36:21.121Z,19.60
2017-06-26T06:38:47.524Z,19.70
2017-06-26T06:41:13.995Z,19.60
2017-06-26T06:43:41.125Z,19.50
2017-06-26T06:46:07.525Z,19.50
2017-06-26T06:48:34.056Z,19.60
2017-06-26T06:51:00.457Z,19.70
2017-06-26T06:53:27.605Z,19.80
2017-06-26T06:55:54.872Z,19.80
2017-06-26T06:58:21.263Z,19.80
2017-06-26T07:00:47.660Z,19.80
2017-06-26T07:03:14.096Z,19.90
2017-06-26T07:05:40.496Z,19.90
2017-06-26T07:08:06.920Z,20.00
2017-06-26T07:10:34.097Z,20.10
2017-06-26T07:13:00.484Z,20.10
2017-06-26T07:15:27.564Z,20.20
2017-06-26T07:17:53.976Z,20.30
2017-06-26T07:20:21.121Z,20.40
2017-06-26T07:22:48.301Z,20.50
2017-06-26T07:25:14.697Z,20.40
2017-06-26T07:27:41.116Z,20.50
2017-06-26T07:30:07.561Z,20.60
2017-06-26T07:32:33.948Z,20.60
2017-06-26T07:35:00.344Z,20.60
2017-06-26T07:37:27.620Z,20.70
2017-06-26T07:39:54.028Z,20.70
2017-06-26T07:42:21.197Z,20.90
2017-06-26T07:44:47.645Z,20.90
2017-06-26T07:47:14.065Z,21.00
2017-06-26T07:49:40.476Z,21.10
2017-06-26T07:52:07.668Z,21.20
2017-06-26T07:54:34.080Z,21.20
2017-06-26T07:57:00.506Z,21.40
2017-06-26T07:59:26.940Z,21.50
2017-06-26T08:01:53.336Z,21.70
2017-06-26T08:04:19.741Z,21.80
2017-06-26T08:06:46.176Z,22.00
2017-06-26T08:09:12.568Z,22.00
2017-06-26T08:11:39.000Z,22.10
2017-06-26T08:14:05.428Z,22.00
2017-06-26T08:16:31.829Z,22.10
2017-06-26T08:18:58.308Z,22.10
2017-06-26T08:21:24.701Z,22.10
2017-06-26T08:23:51.560Z,22.10
2017-06-26T08:26:18.000Z,22.10
2017-06-26T08:28:45.136Z,22.30
2017-06-26T08:31:11.652Z,22.20
2017-06-26T08:33:38.053Z,22.30
2017-06-26T08:36:04.497Z,22.40
2017-06-26T08:38:30.952Z,22.40
2017-06-26T08:40:57.352Z,22.40
2017-06-26T08:43:23.752Z,22.50
2017-06-26T08:45:50.285Z,22.60
2017-06-26T08:48:17.421Z,22.60
2017-06-26T08:50:44.560Z,22.70
2017-06-26T08:53:11.000Z,22.60
2017-06-26T08:55:37.425Z,22.70
2017-06-26T08:58:03.829Z,22.80
2017-06-26T09:00:30.220Z,22.70
2017-06-26T09:02:56.636Z,22.90
2017-06-26T09:05:23.780Z,22.90
2017-06-26T09:07:50.208Z,22.90
2017-06-26T09:10:16.603Z,23.10
2017-06-26T09:12:43.007Z,23.10
2017-06-26T09:15:09.457Z,23.20
2017-06-26T09:17:35.875Z,23.30
2017-06-26T09:20:02.440Z,23.40
2017-06-26T09:22:28.848Z,23.50
2017-06-26T09:24:55.251Z,23.50
2017-06-26T09:27:22.544Z,23.70
2017-06-26T09:29:48.932Z,23.80
2017-06-26T09:32:16.084Z,23.80
2017-06-26T09:34:43.266Z,23.90
2017-06-26T09:37:09.676Z,23.90
2017-06-26T09:39:36.803Z,23.90
2017-06-26T09:42:03.248Z,24.00
2017-06-26T09:44:30.440Z,23.90
2017-06-26T09:46:56.872Z,23.90
2017-06-26T09:49:23.319Z,24.00
2017-06-26T09:51:49.744Z,24.00
2017-06-26T09:54:16.159Z,24.10
2017-06-26T09:56:42.584Z,24.20
2017-06-26T09:59:09.024Z,24.30
2017-06-26T10:01:35.440Z,24.30
2017-06-26T10:04:02.597Z,24.60
2017-06-26T10:06:29.021Z,24.60
2017-06-26T10:08:56.173Z,24.70
2017-06-26T10:11:23.364Z,24.90
2017-06-26T10:13:49.792Z,24.80
2017-06-26T10:16:16.192Z,25.00
2017-06-26T10:18:42.592Z,25.20
2017-06-26T10:21:09.017Z,25.30
2017-06-26T10:23:35.425Z,25.30
2017-06-26T10:26:01.948Z,25.20
2017-06-26T10:28:28.364Z,25.30
2017-06-26T10:30:54.749Z,25.50
2017-06-26T10:33:21.196Z,25.50
2017-06-26T10:35:47.597Z,25.60
2017-06-26T10:38:14.044Z,25.60
2017-06-26T10:40:40.449Z,25.70
2017-06-26T10:43:06.876Z,25.80
2017-06-26T10:45:33.349Z,25.70
2017-06-26T10:47:59.767Z,25.80
2017-06-26T10:50:26.181Z,25.90
2017-06-26T10:52:52.608Z,26.00
2017-06-26T10:55:19.000Z,26.00
2017-06-26T10:57:46.132Z,26.10
2017-06-26T11:00:12.563Z,26.10
2017-06-26T11:02:38.949Z,26.30
2017-06-26T11:05:05.356Z,26.20
2017-06-26T11:07:31.800Z,26.20
2017-06-26T11:09:58.201Z,26.30
2017-06-26T11:12:24.725Z,26.40
2017-06-26T11:14:51.202Z,26.40
2017-06-26T11:17:17.608Z,26.40
2017-06-26T11:19:44.132Z,26.50
2017-06-26T11:22:10.525Z,26.70
2017-06-26T11:24:36.936Z,26.80
2017-06-26T11:27:03.520Z,26.80
2017-06-26T11:29:29.920Z,26.80
2017-06-26T11:31:56.330Z,26.90
2017-06-26T11:34:22.752Z,27.00
2017-06-26T11:36:49.883Z,27.30
2017-06-26T11:39:16.308Z,27.30
2017-06-26T11:41:42.704Z,27.30
2017-06-26T11:44:09.108Z,27.30
2017-06-26T11:46:36.519Z,27.30
2017-06-26T11:49:02.924Z,27.50
2017-06-26T11:51:29.321Z,27.60
2017-06-26T11:53:55.875Z,27.60
2017-06-26T11:56:22.275Z,27.60
2017-06-26T11:58:48.693Z,27.60
2017-06-26T12:01:15.438Z,27.70
2017-06-26T12:03:41.908Z,27.80
2017-06-26T12:06:08.312Z,27.90
2017-06-26T12:08:34.873Z,28.20
2017-06-26T12:11:01.277Z,28.30
2017-06-26T12:13:27.685Z,28.40
2017-06-26T12:15:54.132Z,28.30
2017-06-26T12:18:20.532Z,28.40
2017-06-26T12:20:46.937Z,28.50
2017-06-26T12:23:13.376Z,28.60
2017-06-26T12:25:39.777Z,28.80
2017-06-26T12:28:06.216Z,28.90
2017-06-26T12:30:32.630Z,29.10
2017-06-26T12:32:59.057Z,29.00
2017-06-26T12:35:25.445Z,28.90
2017-06-26T12:37:51.844Z,29.00
2017-06-26T12:40:18.297Z,29.10
2017-06-26T12:42:44.696Z,29.20
2017-06-26T12:45:11.096Z,29.20
2017-06-26T12:47:37.545Z,29.60
2017-06-26T12:50:03.940Z,29.60
2017-06-26T12:52:30.341Z,29.90
2017-06-26T12:54:56.769Z,30.30
2017-06-26T12:57:23.168Z,30.80
2017-06-26T12:59:49.547Z,31.30
2017-06-26T13:02:16.723Z,31.80
2017-06-26T13:04:43.108Z,31.70
2017-06-26T13:07:09.572Z,31.60
2017-06-26T13:09:36.700Z,32.20
2017-06-26T13:12:03.110Z,32.20
2017-06-26T13:14:29.636Z,32.50
2017-06-26T13:16:56.068Z,33.10
2017-06-26T13:19:22.485Z,33.10
2017-06-26T13:21:48.941Z,32.80
2017-06-26T13:24:15.536Z,33.10
2017-06-26T13:26:41.976Z,33.40
2017-06-26T13:29:08.404Z,34.10
2017-06-26T13:31:34.801Z,34.30
2017-06-26T13:34:01.199Z,34.20
2017-06-26T13:36:28.414Z,34.40
2017-06-26T13:38:54.829Z,34.40
2017-06-26T13:41:21.965Z,34.20
2017-06-26T13:43:48.416Z,34.20
2017-06-26T13:46:14.805Z,34.00
2017-06-26T13:48:41.225Z,34.10
2017-06-26T13:51:07.672Z,33.90
2017-06-26T13:56:07.232Z,33.70
2017-06-26T13:58:34.420Z,34.80
2017-06-26T14:01:00.844Z,34.80
2017-06-26T14:03:27.273Z,35.00
2017-06-26T14:05:53.701Z,34.50
2017-06-26T14:08:20.108Z,34.40
2017-06-26T14:10:47.281Z,34.10
2017-06-26T14:13:13.824Z,34.10
2017-06-26T14:15:40.264Z,34.10
2017-06-26T14:18:06.701Z,34.40
2017-06-26T14:20:33.237Z,35.00
2017-06-26T14:22:59.644Z,34.40
2017-06-26T14:25:26.092Z,34.20
2017-06-26T14:27:52.636Z,34.20
2017-06-26T14:30:19.037Z,34.60
2017-06-26T14:32:45.427Z,34.00
2017-06-26T14:35:11.871Z,33.90
2017-06-26T14:37:38.297Z,33.70
2017-06-26T14:40:04.741Z,34.00
2017-06-26T14:42:31.120Z,33.80
2017-06-26T14:44:57.530Z,33.60
2017-06-26T14:47:23.957Z,33.10
2017-06-26T14:49:51.088Z,33.50
2017-06-26T14:52:17.512Z,33.40
2017-06-26T14:54:43.912Z,33.30
2017-06-26T14:57:10.324Z,32.90
2017-06-26T14:59:36.784Z,32.90
2017-06-26T15:02:03.184Z,33.20
2017-06-26T15:04:29.585Z,33.40
2017-06-26T15:06:56.148Z,33.30
2017-06-26T15:09:22.551Z,33.50
2017-06-26T15:11:48.931Z,33.60
2017-06-26T15:14:15.411Z,33.10
2017-06-26T15:16:41.801Z,33.10
2017-06-26T15:19:08.212Z,33.60
2017-06-26T15:21:34.656Z,33.90
2017-06-26T15:24:01.073Z,33.80
2017-06-26T15:26:28.263Z,32.60
2017-06-26T15:28:54.715Z,32.60
2017-06-26T15:31:21.157Z,32.20
2017-06-26T15:33:47.545Z,32.40
2017-06-26T15:36:13.949Z,32.00
2017-06-26T15:38:41.128Z,32.10
2017-06-26T15:41:07.605Z,32.10
2017-06-26T15:43:34.080Z,32.20
2017-06-26T15:46:00.524Z,31.90
2017-06-26T15:48:27.003Z,31.70
2017-06-26T15:50:53.400Z,31.80
2017-06-26T15:53:19.936Z,31.40
2017-06-26T15:55:46.353Z,31.40
2017-06-26T15:58:12.813Z,31.20
2017-06-26T16:00:39.232Z,30.70
2017-06-26T16:03:05.624Z,30.60
2017-06-26T16:05:32.064Z,30.40
2017-06-26T16:07:58.548Z,30.40
2017-06-26T16:10:24.957Z,30.50
2017-06-26T16:12:51.391Z,30.20
2017-06-26T16:15:17.780Z,30.20
2017-06-26T16:17:44.180Z,30.20
2017-06-26T16:20:10.691Z,30.10
2017-06-26T16:22:37.085Z,30.00
2017-06-26T16:25:03.485Z,29.80
2017-06-26T16:27:30.056Z,29.50
2017-06-26T16:29:56.455Z,29.50
2017-06-26T16:32:22.895Z,29.60
2017-06-26T16:34:49.304Z,29.30
2017-06-26T16:37:15.867Z,29.20
2017-06-26T16:39:42.272Z,29.00
2017-06-26T16:42:08.668Z,29.00
2017-06-26T16:44:35.883Z,29.10
2017-06-26T16:47:02.307Z,29.10
2017-06-26T16:49:28.712Z,29.10
2017-06-26T16:51:55.144Z,29.10
2017-06-26T16:54:21.547Z,29.00
2017-06-26T16:56:47.944Z,28.80
2017-06-26T16:59:14.409Z,28.80
2017-06-26T17:01:40.820Z,28.70
2017-06-26T17:04:07.233Z,28.70
2017-06-26T17:06:33.677Z,28.60
2017-06-26T17:09:00.101Z,28.40
2017-06-26T17:11:26.525Z,28.40
2017-06-26T17:13:53.028Z,28.30
2017-06-26T17:16:19.428Z,28.30
2017-06-26T17:18:45.820Z,28.20
2017-06-26T17:21:12.247Z,28.10
2017-06-26T17:23:38.632Z,28.20
2017-06-26T17:26:05.036Z,28.10
2017-06-26T17:28:31.620Z,28.00
2017-06-26T17:30:58.753Z,27.80
2017-06-26T17:33:25.168Z,27.80
2017-06-26T17:35:51.618Z,27.90
2017-06-26T17:38:18.111Z,27.80
2017-06-26T17:40:44.512Z,27.70
2017-06-26T17:43:10.960Z,27.60
2017-06-26T17:45:37.362Z,27.50
2017-06-26T17:48:03.849Z,27.50
2017-06-26T17:50:30.378Z,27.40
2017-06-26T17:52:57.392Z,27.40
2017-06-26T17:55:30.800Z,27.30
2017-06-26T17:57:57.364Z,27.30
2017-06-26T18:00:24.660Z,27.30
2017-06-26T18:02:51.176Z,27.30
2017-06-26T18:05:17.584Z,27.30
2017-06-26T18:07:44.032Z,27.20
2017-06-26T18:10:10.472Z,27.10
2017-06-26T18:12:36.876Z,27.00
2017-06-26T18:15:03.276Z,27.00
2017-06-26T18:17:29.790Z,27.00
2017-06-26T18:19:56.927Z,27.10
2017-06-26T18:22:23.341Z,27.00
2017-06-26T18:24:49.792Z,27.10
2017-06-26T18:27:16.212Z,27.00
2017-06-26T18:29:42.615Z,26.90
2017-06-26T18:32:09.144Z,26.80
2017-06-26T18:34:35.629Z,26.70
2017-06-26T18:37:02.128Z,26.70
2017-06-26T18:39:28.603Z,26.60
2017-06-26T18:41:54.983Z,26.60
2017-06-26T18:44:21.363Z,26.50
2017-06-26T18:46:47.824Z,26.50
2017-06-26T18:49:14.297Z,26.40
2017-06-26T18:51:40.728Z,26.30
2017-06-26T18:54:07.206Z,26.20
2017-06-26T18:56:34.365Z,26.10
2017-06-26T18:59:01.564Z,26.00
2017-06-26T19:01:27.996Z,25.90
2017-06-26T19:03:54.408Z,25.90
2017-06-26T19:06:20.883Z,25.80
2017-06-26T19:08:47.308Z,25.70
2017-06-26T19:11:13.724Z,25.60
2017-06-26T19:13:40.174Z,25.60
2017-06-26T19:16:06.900Z,25.50
2017-06-26T19:18:34.380Z,25.40
2017-06-26T19:21:00.837Z,25.30
2017-06-26T19:23:28.013Z,25.20
2017-06-26T19:25:54.419Z,25.10
2017-06-26T19:28:21.672Z,25.00
2017-06-26T19:30:48.809Z,24.90
2017-06-26T19:33:15.220Z,24.90
2017-06-26T19:35:41.665Z,24.90
2017-06-26T19:38:08.257Z,24.70
2017-06-26T19:40:34.715Z,24.60
2017-06-26T19:43:01.219Z,24.60
2017-06-26T19:45:27.753Z,24.60
2017-06-26T19:47:54.235Z,24.50
2017-06-26T19:50:20.943Z,24.50
2017-06-26T19:52:47.377Z,24.40
2017-06-26T19:55:13.773Z,24.30
2017-06-26T19:57:40.989Z,24.10
2017-06-26T20:00:07.455Z,24.10
2017-06-26T20:02:34.612Z,24.00
2017-06-26T20:05:01.738Z,23.90
2017-06-26T20:07:28.273Z,23.90
2017-06-26T20:09:54.668Z,23.90
2017-06-26T20:12:21.157Z,23.90
2017-06-26T20:14:47.559Z,23.80
2017-06-26T20:17:14.028Z,23.70
2017-06-26T20:19:41.161Z,23.50
2017-06-26T20:22:07.576Z,23.50
2017-06-26T20:24:34.027Z,23.50
2017-06-26T20:27:00.417Z,23.40
2017-06-26T20:29:26.943Z,23.30
2017-06-26T20:31:53.516Z,23.30
2017-06-26T20:34:20.065Z,23.30
2017-06-26T20:36:46.497Z,23.30
2017-06-26T20:39:13.116Z,23.20
2017-06-26T20:41:39.509Z,23.20
2017-06-26T20:44:05.892Z,23.20
2017-06-26T20:46:32.343Z,23.10
2017-06-26T20:49:00.112Z,23.00
2017-06-26T20:51:26.515Z,23.00
2017-06-26T20:53:52.953Z,23.00
2017-06-26T20:56:19.472Z,23.00
2017-06-26T20:58:46.711Z,22.90
2017-06-26T21:01:13.289Z,22.90
2017-06-26T21:03:39.719Z,22.80
2017-06-26T21:06:06.111Z,22.80
2017-06-26T21:08:33.619Z,22.80
2017-06-26T21:11:00.005Z,22.80
2017-06-26T21:13:26.570Z,22.70
2017-06-26T21:15:53.000Z,22.70
2017-06-26T21:18:19.393Z,22.60
2017-06-26T21:20:45.976Z,22.60
2017-06-26T21:23:12.524Z,22.60
2017-06-26T21:25:38.957Z,22.50
2017-06-26T21:28:06.160Z,22.40
2017-06-26T21:30:32.706Z,22.30
2017-06-26T21:32:59.100Z,22.30
2017-06-26T21:35:25.508Z,22.30
2017-06-26T21:37:52.733Z,22.40
2017-06-26T21:40:19.120Z,22.30
2017-06-26T21:42:45.569Z,22.30
2017-06-26T21:45:11.964Z,22.20
2017-06-26T21:47:38.428Z,22.20
2017-06-26T21:50:04.884Z,22.10
2017-06-26T21:52:31.275Z,22.10
2017-06-26T21:54:57.667Z,22.10
2017-06-26T21:57:24.121Z,22.10
2017-06-26T21:59:51.257Z,22.00
2017-06-26T22:02:17.660Z,21.90
2017-06-26T22:04:44.099Z,21.90
2017-06-26T22:07:10.517Z,21.90
2017-06-26T22:09:36.912Z,21.90
2017-06-26T22:12:04.083Z,21.80
2017-06-26T22:14:30.507Z,21.80
2017-06-26T22:16:56.899Z,21.80
2017-06-26T22:19:23.338Z,21.80
2017-06-26T22:21:49.728Z,21.80
2017-06-26T22:24:16.200Z,21.80
2017-06-26T22:26:42.604Z,21.80
2017-06-26T22:29:09.037Z,21.80
2017-06-26T22:31:35.481Z,21.70
2017-06-26T22:34:01.884Z,21.70
2017-06-26T22:36:28.276Z,21.70
2017-06-26T22:38:55.603Z,21.60
2017-06-26T22:41:22.000Z,21.60
2017-06-26T22:43:48.401Z,21.60
2017-06-26T22:46:15.576Z,21.50
2017-06-26T22:48:42.024Z,21.50
2017-06-26T22:51:08.533Z,21.50
2017-06-26T22:53:34.932Z,21.50
2017-06-26T22:56:01.321Z,21.40
2017-06-26T22:58:27.823Z,21.30
2017-06-26T23:00:54.961Z,21.30
2017-06-26T23:03:22.100Z,21.20
2017-06-26T23:05:48.547Z,21.20
2017-06-26T23:08:15.751Z,21.10
2017-06-26T23:10:42.160Z,21.10
2017-06-26T23:13:08.663Z,21.10
2017-06-26T23:15:35.804Z,21.00
2017-06-26T23:18:02.300Z,20.90
2017-06-26T23:20:28.763Z,20.90
2017-06-26T23:22:55.152Z,20.90
2017-06-26T23:25:21.552Z,20.80
2017-06-26T23:27:48.796Z,20.90
2017-06-26T23:30:15.928Z,20.80
2017-06-26T23:32:42.336Z,20.80
2017-06-26T23:35:08.792Z,20.80
2017-06-26T23:37:35.208Z,20.80
2017-06-26T23:40:01.604Z,20.70
2017-06-26T23:42:28.033Z,20.60
2017-06-26T23:44:54.428Z,20.70
2017-06-26T23:47:20.868Z,20.60
2017-06-26T23:49:47.263Z,20.60
2017-06-26T23:52:13.724Z,20.50
2017-06-26T23:54:40.240Z,20.50
2017-06-26T23:57:06.644Z,20.50
2017-06-26T23:59:33.032Z,20.50
